sensor_id;sensor_type;location;lat;lon;timestamp;temperature;humidity
26408;DHT22;14583;43.604;1.364;2023-07-31T00:00:29;21.70;99.90
26408;DHT22;14583;43.604;1.364;2023-07-31T00:02:54;21.70;99.90
26408;DHT22;14583;43.604;1.364;2023-07-31T00:05:20;21.60;99.90
26408;DHT22;14583;43.604;1.364;2023-07-31T00:07:46;21.70;99.90
26408;DHT22;14583;43.604;1.364;2023-07-31T00:10:12;21.60;99.90
26408;DHT22;14583;43.604;1.364;2023-07-31T00:12:42;21.60;99.90
26408;DHT22;14583;43.604;1.364;2023-07-31T00:15:08;21.50;99.90
26408;DHT22;14583;43.604;1.364;2023-07-31T00:17:34;21.50;99.90
26408;DHT22;14583;43.604;1.364;2023-07-31T00:20:00;21.40;99.90
26408;DHT22;14583;43.604;1.364;2023-07-31T00:22:26;21.40;99.90
26408;DHT22;14583;43.604;1.364;2023-07-31T00:24:51;21.40;99.90
26408;DHT22;14583;43.604;1.364;2023-07-31T00:27:17;21.40;99.90
26408;DHT22;14583;43.604;1.364;2023-07-31T00:29:43;21.40;99.90
26408;DHT22;14583;43.604;1.364;2023-07-31T00:32:09;21.30;99.90
26408;DHT22;14583;43.604;1.364;2023-07-31T00:34:34;21.20;99.90
26408;DHT22;14583;43.604;1.364;2023-07-31T00:37:00;21.10;99.90
26408;DHT22;14583;43.604;1.364;2023-07-31T00:39:26;21.20;99.90
26408;DHT22;14583;43.604;1.364;2023-07-31T00:41:51;21.30;99.90
26408;DHT22;14583;43.604;1.364;2023-07-31T00:44:17;21.30;99.90
26408;DHT22;14583;43.604;1.364;2023-07-31T00:46:43;21.40;99.90
26408;DHT22;14583;43.604;1.364;2023-07-31T00:49:10;21.30;99.90
26408;DHT22;14583;43.604;1.364;2023-07-31T00:51:36;21.20;99.90
26408;DHT22;14583;43.604;1.364;2023-07-31T00:54:03;21.20;99.90
26408;DHT22;14583;43.604;1.364;2023-07-31T00:56:28;21.20;99.90
26408;DHT22;14583;43.604;1.364;2023-07-31T00:58:55;21.20;99.90
26408;DHT22;14583;43.604;1.364;2023-07-31T01:01:21;21.20;99.90
26408;DHT22;14583;43.604;1.364;2023-07-31T01:03:52;21.10;99.90
26408;DHT22;14583;43.604;1.364;2023-07-31T01:09:10;21.00;99.90
26408;DHT22;14583;43.604;1.364;2023-07-31T01:11:48;20.90;99.90
26408;DHT22;14583;43.604;1.364;2023-07-31T01:14:16;20.90;99.90
26408;DHT22;14583;43.604;1.364;2023-07-31T01:16:42;20.80;99.90
26408;DHT22;14583;43.604;1.364;2023-07-31T01:19:09;20.80;99.90
26408;DHT22;14583;43.604;1.364;2023-07-31T01:26:37;20.90;99.90
26408;DHT22;14583;43.604;1.364;2023-07-31T01:31:33;20.70;99.90
26408;DHT22;14583;43.604;1.364;2023-07-31T01:34:01;20.60;99.90
26408;DHT22;14583;43.604;1.364;2023-07-31T01:36:28;20.70;99.90
26408;DHT22;14583;43.604;1.364;2023-07-31T01:39:02;20.60;99.90
26408;DHT22;14583;43.604;1.364;2023-07-31T01:41:29;20.60;99.90
26408;DHT22;14583;43.604;1.364;2023-07-31T01:43:55;20.60;99.90
26408;DHT22;14583;43.604;1.364;2023-07-31T01:46:21;20.60;99.90
26408;DHT22;14583;43.604;1.364;2023-07-31T01:48:46;20.50;99.90
26408;DHT22;14583;43.604;1.364;2023-07-31T01:51:12;20.50;99.90
26408;DHT22;14583;43.604;1.364;2023-07-31T01:53:38;20.40;99.90
26408;DHT22;14583;43.604;1.364;2023-07-31T01:56:03;20.40;99.90
26408;DHT22;14583;43.604;1.364;2023-07-31T01:58:29;20.20;99.90
26408;DHT22;14583;43.604;1.364;2023-07-31T02:00:55;20.20;99.90
26408;DHT22;14583;43.604;1.364;2023-07-31T02:03:20;20.30;99.90
26408;DHT22;14583;43.604;1.364;2023-07-31T02:05:47;20.40;99.90
26408;DHT22;14583;43.604;1.364;2023-07-31T02:08:13;20.40;99.90
26408;DHT22;14583;43.604;1.364;2023-07-31T02:10:39;20.30;99.90
26408;DHT22;14583;43.604;1.364;2023-07-31T02:13:05;20.30;99.90
26408;DHT22;14583;43.604;1.364;2023-07-31T02:15:31;20.30;99.90
26408;DHT22;14583;43.604;1.364;2023-07-31T02:17:57;20.20;99.90
26408;DHT22;14583;43.604;1.364;2023-07-31T02:20:23;20.20;99.90
26408;DHT22;14583;43.604;1.364;2023-07-31T02:22:48;20.30;99.90
26408;DHT22;14583;43.604;1.364;2023-07-31T02:25:14;20.20;99.90
26408;DHT22;14583;43.604;1.364;2023-07-31T02:27:40;20.20;99.90
26408;DHT22;14583;43.604;1.364;2023-07-31T02:30:06;20.30;99.90
26408;DHT22;14583;43.604;1.364;2023-07-31T02:32:32;20.30;99.90
26408;DHT22;14583;43.604;1.364;2023-07-31T02:34:58;20.20;99.90
26408;DHT22;14583;43.604;1.364;2023-07-31T02:37:23;20.20;99.90
26408;DHT22;14583;43.604;1.364;2023-07-31T02:39:49;20.30;99.90
26408;DHT22;14583;43.604;1.364;2023-07-31T02:42:15;20.20;99.90
26408;DHT22;14583;43.604;1.364;2023-07-31T02:44:41;20.10;99.90
26408;DHT22;14583;43.604;1.364;2023-07-31T02:47:06;20.20;99.90
26408;DHT22;14583;43.604;1.364;2023-07-31T02:49:32;20.00;99.90
26408;DHT22;14583;43.604;1.364;2023-07-31T02:51:58;20.00;99.90
26408;DHT22;14583;43.604;1.364;2023-07-31T02:54:23;20.00;99.90
26408;DHT22;14583;43.604;1.364;2023-07-31T02:56:49;20.00;99.90
26408;DHT22;14583;43.604;1.364;2023-07-31T02:59:15;20.00;99.90
26408;DHT22;14583;43.604;1.364;2023-07-31T03:01:40;19.70;99.90
26408;DHT22;14583;43.604;1.364;2023-07-31T03:04:06;19.80;99.90
26408;DHT22;14583;43.604;1.364;2023-07-31T03:06:32;19.70;99.90
26408;DHT22;14583;43.604;1.364;2023-07-31T03:08:57;19.70;99.90
26408;DHT22;14583;43.604;1.364;2023-07-31T03:11:23;19.80;99.90
26408;DHT22;14583;43.604;1.364;2023-07-31T03:13:49;19.90;99.90
26408;DHT22;14583;43.604;1.364;2023-07-31T03:16:18;19.90;99.90
26408;DHT22;14583;43.604;1.364;2023-07-31T03:18:43;19.90;99.90
26408;DHT22;14583;43.604;1.364;2023-07-31T03:21:09;19.80;99.90
26408;DHT22;14583;43.604;1.364;2023-07-31T03:23:34;19.90;99.90
26408;DHT22;14583;43.604;1.364;2023-07-31T03:26:03;19.90;99.90
26408;DHT22;14583;43.604;1.364;2023-07-31T03:28:29;19.90;99.90
26408;DHT22;14583;43.604;1.364;2023-07-31T03:30:55;19.90;99.90
26408;DHT22;14583;43.604;1.364;2023-07-31T03:33:21;19.90;99.90
26408;DHT22;14583;43.604;1.364;2023-07-31T03:35:46;19.80;99.90
26408;DHT22;14583;43.604;1.364;2023-07-31T03:38:13;19.60;99.90
26408;DHT22;14583;43.604;1.364;2023-07-31T03:40:39;19.60;99.90
26408;DHT22;14583;43.604;1.364;2023-07-31T03:43:05;19.60;99.90
26408;DHT22;14583;43.604;1.364;2023-07-31T03:45:31;19.70;99.90
26408;DHT22;14583;43.604;1.364;2023-07-31T03:47:57;19.70;99.90
26408;DHT22;14583;43.604;1.364;2023-07-31T03:50:23;19.80;99.90
26408;DHT22;14583;43.604;1.364;2023-07-31T03:52:50;19.70;99.90
26408;DHT22;14583;43.604;1.364;2023-07-31T03:55:16;19.70;99.90
26408;DHT22;14583;43.604;1.364;2023-07-31T03:57:41;19.50;99.90
26408;DHT22;14583;43.604;1.364;2023-07-31T04:00:07;19.60;99.90
26408;DHT22;14583;43.604;1.364;2023-07-31T04:02:33;19.60;99.90
26408;DHT22;14583;43.604;1.364;2023-07-31T04:04:59;19.50;99.90
26408;DHT22;14583;43.604;1.364;2023-07-31T04:07:24;19.50;99.90
26408;DHT22;14583;43.604;1.364;2023-07-31T04:09:50;19.40;99.90
26408;DHT22;14583;43.604;1.364;2023-07-31T04:12:16;19.30;99.90
26408;DHT22;14583;43.604;1.364;2023-07-31T04:14:41;19.30;99.90
26408;DHT22;14583;43.604;1.364;2023-07-31T04:17:07;19.30;99.90
26408;DHT22;14583;43.604;1.364;2023-07-31T04:19:33;19.30;99.90
26408;DHT22;14583;43.604;1.364;2023-07-31T04:21:58;19.20;99.90
26408;DHT22;14583;43.604;1.364;2023-07-31T04:24:24;19.20;99.90
26408;DHT22;14583;43.604;1.364;2023-07-31T04:26:50;19.10;99.90
26408;DHT22;14583;43.604;1.364;2023-07-31T04:29:16;19.30;99.90
26408;DHT22;14583;43.604;1.364;2023-07-31T04:31:42;19.20;99.90
26408;DHT22;14583;43.604;1.364;2023-07-31T04:34:08;19.10;99.90
26408;DHT22;14583;43.604;1.364;2023-07-31T04:36:34;19.10;99.90
26408;DHT22;14583;43.604;1.364;2023-07-31T04:39:00;19.00;99.90
26408;DHT22;14583;43.604;1.364;2023-07-31T04:41:26;19.00;99.90
26408;DHT22;14583;43.604;1.364;2023-07-31T04:43:52;19.20;99.90
26408;DHT22;14583;43.604;1.364;2023-07-31T04:46:17;19.20;99.90
26408;DHT22;14583;43.604;1.364;2023-07-31T04:48:43;19.10;99.90
26408;DHT22;14583;43.604;1.364;2023-07-31T04:51:09;19.10;99.90
26408;DHT22;14583;43.604;1.364;2023-07-31T04:53:35;19.20;99.90
26408;DHT22;14583;43.604;1.364;2023-07-31T04:56:02;19.20;99.90
26408;DHT22;14583;43.604;1.364;2023-07-31T04:58:27;18.90;99.90
26408;DHT22;14583;43.604;1.364;2023-07-31T05:00:53;18.90;99.90
26408;DHT22;14583;43.604;1.364;2023-07-31T05:03:19;19.00;99.90
26408;DHT22;14583;43.604;1.364;2023-07-31T05:05:44;19.10;99.90
26408;DHT22;14583;43.604;1.364;2023-07-31T05:08:10;19.20;99.90
26408;DHT22;14583;43.604;1.364;2023-07-31T05:10:36;19.10;99.90
26408;DHT22;14583;43.604;1.364;2023-07-31T05:13:01;19.10;99.90
26408;DHT22;14583;43.604;1.364;2023-07-31T05:15:28;19.20;99.90
26408;DHT22;14583;43.604;1.364;2023-07-31T05:17:54;19.10;99.90
26408;DHT22;14583;43.604;1.364;2023-07-31T05:20:20;19.10;99.90
26408;DHT22;14583;43.604;1.364;2023-07-31T05:22:46;18.90;99.90
26408;DHT22;14583;43.604;1.364;2023-07-31T05:25:12;19.00;99.90
26408;DHT22;14583;43.604;1.364;2023-07-31T05:27:38;19.10;99.90
26408;DHT22;14583;43.604;1.364;2023-07-31T05:30:04;19.20;99.90
26408;DHT22;14583;43.604;1.364;2023-07-31T05:32:30;19.20;99.90
26408;DHT22;14583;43.604;1.364;2023-07-31T05:34:56;19.20;99.90
26408;DHT22;14583;43.604;1.364;2023-07-31T05:37:22;19.30;99.90
26408;DHT22;14583;43.604;1.364;2023-07-31T05:39:48;19.30;99.90
26408;DHT22;14583;43.604;1.364;2023-07-31T05:42:14;19.30;99.90
26408;DHT22;14583;43.604;1.364;2023-07-31T05:44:39;19.20;99.90
26408;DHT22;14583;43.604;1.364;2023-07-31T05:47:05;19.30;99.90
26408;DHT22;14583;43.604;1.364;2023-07-31T05:49:31;19.40;99.90
26408;DHT22;14583;43.604;1.364;2023-07-31T05:51:56;19.50;99.90
26408;DHT22;14583;43.604;1.364;2023-07-31T05:54:22;19.50;99.90
26408;DHT22;14583;43.604;1.364;2023-07-31T05:56:48;19.60;99.90
26408;DHT22;14583;43.604;1.364;2023-07-31T05:59:14;19.60;99.90
26408;DHT22;14583;43.604;1.364;2023-07-31T06:01:39;19.60;99.90
26408;DHT22;14583;43.604;1.364;2023-07-31T06:04:05;19.60;99.90
26408;DHT22;14583;43.604;1.364;2023-07-31T06:06:31;19.60;99.90
26408;DHT22;14583;43.604;1.364;2023-07-31T06:08:56;19.60;99.90
26408;DHT22;14583;43.604;1.364;2023-07-31T06:11:22;19.70;99.90
26408;DHT22;14583;43.604;1.364;2023-07-31T06:13:48;19.90;99.90
26408;DHT22;14583;43.604;1.364;2023-07-31T06:16:15;20.00;99.90
26408;DHT22;14583;43.604;1.364;2023-07-31T06:18:42;20.00;99.90
26408;DHT22;14583;43.604;1.364;2023-07-31T06:21:17;19.90;99.90
26408;DHT22;14583;43.604;1.364;2023-07-31T06:23:42;19.80;99.90
26408;DHT22;14583;43.604;1.364;2023-07-31T06:26:08;19.80;99.90
26408;DHT22;14583;43.604;1.364;2023-07-31T06:28:34;20.00;99.90
26408;DHT22;14583;43.604;1.364;2023-07-31T06:31:00;20.00;99.90
26408;DHT22;14583;43.604;1.364;2023-07-31T06:33:27;20.10;99.90
26408;DHT22;14583;43.604;1.364;2023-07-31T06:35:53;20.10;99.90
26408;DHT22;14583;43.604;1.364;2023-07-31T06:38:23;20.20;99.90
26408;DHT22;14583;43.604;1.364;2023-07-31T06:40:49;20.30;99.90
26408;DHT22;14583;43.604;1.364;2023-07-31T06:43:15;20.30;99.90
26408;DHT22;14583;43.604;1.364;2023-07-31T06:45:40;20.20;99.90
26408;DHT22;14583;43.604;1.364;2023-07-31T06:48:09;20.30;99.90
26408;DHT22;14583;43.604;1.364;2023-07-31T06:50:34;20.40;99.90
26408;DHT22;14583;43.604;1.364;2023-07-31T06:53:00;20.40;99.90
26408;DHT22;14583;43.604;1.364;2023-07-31T06:55:26;20.50;99.90
26408;DHT22;14583;43.604;1.364;2023-07-31T06:57:54;20.50;99.90
26408;DHT22;14583;43.604;1.364;2023-07-31T07:00:20;20.50;99.90
26408;DHT22;14583;43.604;1.364;2023-07-31T07:02:47;20.50;99.90
26408;DHT22;14583;43.604;1.364;2023-07-31T07:05:13;20.50;99.90
26408;DHT22;14583;43.604;1.364;2023-07-31T07:07:39;20.60;99.90
26408;DHT22;14583;43.604;1.364;2023-07-31T07:10:06;20.60;99.90
26408;DHT22;14583;43.604;1.364;2023-07-31T07:12:32;20.70;99.90
26408;DHT22;14583;43.604;1.364;2023-07-31T07:15:01;20.70;99.90
26408;DHT22;14583;43.604;1.364;2023-07-31T07:17:29;20.70;99.90
26408;DHT22;14583;43.604;1.364;2023-07-31T07:19:58;20.60;99.90
26408;DHT22;14583;43.604;1.364;2023-07-31T07:22:24;20.60;99.90
26408;DHT22;14583;43.604;1.364;2023-07-31T07:24:50;20.70;99.90
26408;DHT22;14583;43.604;1.364;2023-07-31T07:27:16;20.80;99.90
26408;DHT22;14583;43.604;1.364;2023-07-31T07:29:41;20.90;99.90
26408;DHT22;14583;43.604;1.364;2023-07-31T07:32:07;20.90;99.90
26408;DHT22;14583;43.604;1.364;2023-07-31T07:34:33;21.00;99.90
26408;DHT22;14583;43.604;1.364;2023-07-31T07:36:59;21.00;99.90
26408;DHT22;14583;43.604;1.364;2023-07-31T07:39:24;21.00;99.90
26408;DHT22;14583;43.604;1.364;2023-07-31T07:41:50;20.90;99.90
26408;DHT22;14583;43.604;1.364;2023-07-31T07:44:16;20.90;99.90
26408;DHT22;14583;43.604;1.364;2023-07-31T07:46:42;21.00;99.90
26408;DHT22;14583;43.604;1.364;2023-07-31T07:49:07;21.10;99.90
26408;DHT22;14583;43.604;1.364;2023-07-31T07:51:33;21.10;99.90
26408;DHT22;14583;43.604;1.364;2023-07-31T07:53:59;21.20;99.90
26408;DHT22;14583;43.604;1.364;2023-07-31T07:56:27;21.20;99.90
26408;DHT22;14583;43.604;1.364;2023-07-31T07:58:54;21.10;99.90
26408;DHT22;14583;43.604;1.364;2023-07-31T08:01:20;21.20;99.90
26408;DHT22;14583;43.604;1.364;2023-07-31T08:03:47;21.30;99.90
26408;DHT22;14583;43.604;1.364;2023-07-31T08:06:13;21.30;99.90
26408;DHT22;14583;43.604;1.364;2023-07-31T08:08:39;21.50;99.90
26408;DHT22;14583;43.604;1.364;2023-07-31T08:11:05;21.50;99.90
26408;DHT22;14583;43.604;1.364;2023-07-31T08:13:30;21.50;99.90
26408;DHT22;14583;43.604;1.364;2023-07-31T08:15:56;21.50;99.90
26408;DHT22;14583;43.604;1.364;2023-07-31T08:18:22;21.50;99.90
26408;DHT22;14583;43.604;1.364;2023-07-31T08:20:48;21.50;99.90
26408;DHT22;14583;43.604;1.364;2023-07-31T08:23:14;21.50;99.90
26408;DHT22;14583;43.604;1.364;2023-07-31T08:25:40;21.60;99.90
26408;DHT22;14583;43.604;1.364;2023-07-31T08:28:06;21.70;99.90
26408;DHT22;14583;43.604;1.364;2023-07-31T08:30:32;21.70;99.90
26408;DHT22;14583;43.604;1.364;2023-07-31T08:32:59;21.70;99.90
26408;DHT22;14583;43.604;1.364;2023-07-31T08:35:25;21.70;99.90
26408;DHT22;14583;43.604;1.364;2023-07-31T08:37:51;21.70;99.90
26408;DHT22;14583;43.604;1.364;2023-07-31T08:40:16;21.80;99.90
26408;DHT22;14583;43.604;1.364;2023-07-31T08:42:50;21.80;99.90
26408;DHT22;14583;43.604;1.364;2023-07-31T08:45:17;21.90;99.90
26408;DHT22;14583;43.604;1.364;2023-07-31T08:47:51;22.00;99.90
26408;DHT22;14583;43.604;1.364;2023-07-31T08:50:19;22.00;99.90
26408;DHT22;14583;43.604;1.364;2023-07-31T08:52:51;22.10;99.90
26408;DHT22;14583;43.604;1.364;2023-07-31T08:55:17;22.10;99.90
26408;DHT22;14583;43.604;1.364;2023-07-31T08:57:44;22.10;99.90
26408;DHT22;14583;43.604;1.364;2023-07-31T09:00:11;22.10;99.90
26408;DHT22;14583;43.604;1.364;2023-07-31T09:02:51;22.20;99.90
26408;DHT22;14583;43.604;1.364;2023-07-31T09:05:18;22.20;99.90
26408;DHT22;14583;43.604;1.364;2023-07-31T09:07:47;22.20;99.90
26408;DHT22;14583;43.604;1.364;2023-07-31T09:10:13;22.20;99.90
26408;DHT22;14583;43.604;1.364;2023-07-31T09:12:39;22.30;99.90
26408;DHT22;14583;43.604;1.364;2023-07-31T09:15:05;22.40;99.90
26408;DHT22;14583;43.604;1.364;2023-07-31T09:17:36;22.50;99.90
26408;DHT22;14583;43.604;1.364;2023-07-31T09:20:22;22.40;99.90
26408;DHT22;14583;43.604;1.364;2023-07-31T09:22:50;22.40;99.90
26408;DHT22;14583;43.604;1.364;2023-07-31T09:25:26;22.50;99.90
26408;DHT22;14583;43.604;1.364;2023-07-31T09:27:58;22.50;99.90
26408;DHT22;14583;43.604;1.364;2023-07-31T09:30:24;22.50;99.90
26408;DHT22;14583;43.604;1.364;2023-07-31T09:32:51;22.50;99.90
26408;DHT22;14583;43.604;1.364;2023-07-31T09:35:22;22.60;99.90
26408;DHT22;14583;43.604;1.364;2023-07-31T09:37:52;22.60;99.90
26408;DHT22;14583;43.604;1.364;2023-07-31T09:40:35;22.60;99.90
26408;DHT22;14583;43.604;1.364;2023-07-31T09:43:07;22.60;99.90
26408;DHT22;14583;43.604;1.364;2023-07-31T09:45:41;22.70;99.90
26408;DHT22;14583;43.604;1.364;2023-07-31T09:48:08;22.60;99.90
26408;DHT22;14583;43.604;1.364;2023-07-31T09:50:40;22.80;99.90
26408;DHT22;14583;43.604;1.364;2023-07-31T09:53:07;22.90;99.90
26408;DHT22;14583;43.604;1.364;2023-07-31T09:55:33;22.90;99.90
26408;DHT22;14583;43.604;1.364;2023-07-31T09:58:01;22.80;99.90
26408;DHT22;14583;43.604;1.364;2023-07-31T10:00:27;22.90;99.90
26408;DHT22;14583;43.604;1.364;2023-07-31T10:02:54;22.90;99.90
26408;DHT22;14583;43.604;1.364;2023-07-31T10:05:23;22.90;99.90
26408;DHT22;14583;43.604;1.364;2023-07-31T10:07:54;22.90;99.90
26408;DHT22;14583;43.604;1.364;2023-07-31T10:10:22;22.90;99.90
26408;DHT22;14583;43.604;1.364;2023-07-31T10:12:52;22.90;99.90
26408;DHT22;14583;43.604;1.364;2023-07-31T10:15:18;23.00;99.90
26408;DHT22;14583;43.604;1.364;2023-07-31T10:17:47;23.00;99.90
26408;DHT22;14583;43.604;1.364;2023-07-31T10:20:14;23.00;99.90
26408;DHT22;14583;43.604;1.364;2023-07-31T10:22:42;23.10;99.90
26408;DHT22;14583;43.604;1.364;2023-07-31T10:25:09;23.10;99.90
26408;DHT22;14583;43.604;1.364;2023-07-31T10:27:45;23.20;99.90
26408;DHT22;14583;43.604;1.364;2023-07-31T10:30:15;23.20;99.90
26408;DHT22;14583;43.604;1.364;2023-07-31T10:32:41;23.30;99.90
26408;DHT22;14583;43.604;1.364;2023-07-31T10:35:09;23.40;99.90
26408;DHT22;14583;43.604;1.364;2023-07-31T10:37:42;23.40;99.90
26408;DHT22;14583;43.604;1.364;2023-07-31T10:40:13;23.40;99.90
26408;DHT22;14583;43.604;1.364;2023-07-31T10:42:50;23.50;99.90
26408;DHT22;14583;43.604;1.364;2023-07-31T10:45:39;23.50;99.90
26408;DHT22;14583;43.604;1.364;2023-07-31T10:48:06;23.80;99.90
26408;DHT22;14583;43.604;1.364;2023-07-31T10:50:36;23.70;99.70
26408;DHT22;14583;43.604;1.364;2023-07-31T10:53:02;23.70;99.90
26408;DHT22;14583;43.604;1.364;2023-07-31T10:55:39;23.70;99.80
26408;DHT22;14583;43.604;1.364;2023-07-31T10:58:10;23.70;99.70
26408;DHT22;14583;43.604;1.364;2023-07-31T11:00:41;23.60;99.90
26408;DHT22;14583;43.604;1.364;2023-07-31T11:03:19;23.70;99.90
26408;DHT22;14583;43.604;1.364;2023-07-31T11:06:01;23.80;99.90
26408;DHT22;14583;43.604;1.364;2023-07-31T11:08:30;23.90;99.70
26408;DHT22;14583;43.604;1.364;2023-07-31T11:13:28;24.00;99.40
26408;DHT22;14583;43.604;1.364;2023-07-31T11:15:54;24.00;99.30
26408;DHT22;14583;43.604;1.364;2023-07-31T11:18:20;24.00;99.10
26408;DHT22;14583;43.604;1.364;2023-07-31T11:20:45;24.10;99.00
26408;DHT22;14583;43.604;1.364;2023-07-31T11:23:11;24.00;98.20
26408;DHT22;14583;43.604;1.364;2023-07-31T11:25:40;24.10;98.80
26408;DHT22;14583;43.604;1.364;2023-07-31T11:28:14;24.10;98.60
26408;DHT22;14583;43.604;1.364;2023-07-31T11:30:40;24.20;98.50
26408;DHT22;14583;43.604;1.364;2023-07-31T11:33:07;24.10;97.70
26408;DHT22;14583;43.604;1.364;2023-07-31T11:35:34;24.30;98.40
26408;DHT22;14583;43.604;1.364;2023-07-31T11:38:00;24.50;97.90
26408;DHT22;14583;43.604;1.364;2023-07-31T11:40:27;24.50;98.00
26408;DHT22;14583;43.604;1.364;2023-07-31T11:43:03;24.50;97.90
26408;DHT22;14583;43.604;1.364;2023-07-31T11:45:30;24.40;97.50
26408;DHT22;14583;43.604;1.364;2023-07-31T11:47:56;24.60;97.50
26408;DHT22;14583;43.604;1.364;2023-07-31T11:50:23;24.90;97.10
26408;DHT22;14583;43.604;1.364;2023-07-31T11:53:03;25.00;96.80
26408;DHT22;14583;43.604;1.364;2023-07-31T11:55:32;24.80;97.00
26408;DHT22;14583;43.604;1.364;2023-07-31T11:57:59;24.70;96.80
26408;DHT22;14583;43.604;1.364;2023-07-31T12:00:25;24.70;97.00
26408;DHT22;14583;43.604;1.364;2023-07-31T12:02:52;24.50;97.50
26408;DHT22;14583;43.604;1.364;2023-07-31T12:05:18;24.50;97.10
26408;DHT22;14583;43.604;1.364;2023-07-31T12:07:45;24.60;96.90
26408;DHT22;14583;43.604;1.364;2023-07-31T12:10:21;24.60;96.80
26408;DHT22;14583;43.604;1.364;2023-07-31T12:12:58;24.80;96.80
26408;DHT22;14583;43.604;1.364;2023-07-31T12:17:57;24.80;95.20
26408;DHT22;14583;43.604;1.364;2023-07-31T12:20:23;24.70;94.10
26408;DHT22;14583;43.604;1.364;2023-07-31T12:22:48;25.10;94.60
26408;DHT22;14583;43.604;1.364;2023-07-31T12:25:17;25.10;94.90
26408;DHT22;14583;43.604;1.364;2023-07-31T12:27:45;25.20;95.60
26408;DHT22;14583;43.604;1.364;2023-07-31T12:30:28;25.40;95.60
26408;DHT22;14583;43.604;1.364;2023-07-31T12:32:54;25.40;95.70
26408;DHT22;14583;43.604;1.364;2023-07-31T12:35:19;25.30;95.30
26408;DHT22;14583;43.604;1.364;2023-07-31T12:37:45;25.30;95.20
26408;DHT22;14583;43.604;1.364;2023-07-31T12:40:11;25.10;94.40
26408;DHT22;14583;43.604;1.364;2023-07-31T12:42:38;25.30;93.90
26408;DHT22;14583;43.604;1.364;2023-07-31T12:45:04;25.80;93.60
26408;DHT22;14583;43.604;1.364;2023-07-31T12:47:30;25.60;93.90
26408;DHT22;14583;43.604;1.364;2023-07-31T12:49:55;25.50;93.80
26408;DHT22;14583;43.604;1.364;2023-07-31T12:52:21;25.50;93.90
26408;DHT22;14583;43.604;1.364;2023-07-31T12:54:47;25.40;94.10
26408;DHT22;14583;43.604;1.364;2023-07-31T12:57:12;25.30;94.30
26408;DHT22;14583;43.604;1.364;2023-07-31T12:59:38;25.30;93.70
26408;DHT22;14583;43.604;1.364;2023-07-31T13:02:04;25.80;94.00
26408;DHT22;14583;43.604;1.364;2023-07-31T13:04:29;25.90;93.10
26408;DHT22;14583;43.604;1.364;2023-07-31T13:06:55;26.00;93.60
26408;DHT22;14583;43.604;1.364;2023-07-31T13:09:21;25.90;93.20
26408;DHT22;14583;43.604;1.364;2023-07-31T13:11:46;26.00;93.30
26408;DHT22;14583;43.604;1.364;2023-07-31T13:14:12;25.90;92.60
26408;DHT22;14583;43.604;1.364;2023-07-31T13:16:38;25.80;92.80
26408;DHT22;14583;43.604;1.364;2023-07-31T13:19:04;26.00;92.70
26408;DHT22;14583;43.604;1.364;2023-07-31T13:21:29;26.00;93.40
26408;DHT22;14583;43.604;1.364;2023-07-31T13:23:55;26.00;93.10
26408;DHT22;14583;43.604;1.364;2023-07-31T13:26:23;26.30;93.10
26408;DHT22;14583;43.604;1.364;2023-07-31T13:28:49;26.30;93.20
26408;DHT22;14583;43.604;1.364;2023-07-31T13:31:14;26.30;93.20
26408;DHT22;14583;43.604;1.364;2023-07-31T13:33:40;26.40;92.90
26408;DHT22;14583;43.604;1.364;2023-07-31T13:36:06;26.50;93.00
26408;DHT22;14583;43.604;1.364;2023-07-31T13:38:31;26.50;93.10
26408;DHT22;14583;43.604;1.364;2023-07-31T13:40:57;26.50;92.90
26408;DHT22;14583;43.604;1.364;2023-07-31T13:43:23;26.50;93.00
26408;DHT22;14583;43.604;1.364;2023-07-31T13:45:48;26.60;92.80
26408;DHT22;14583;43.604;1.364;2023-07-31T13:48:14;27.00;91.70
26408;DHT22;14583;43.604;1.364;2023-07-31T13:50:40;27.20;91.90
26408;DHT22;14583;43.604;1.364;2023-07-31T13:53:05;27.40;91.70
26408;DHT22;14583;43.604;1.364;2023-07-31T13:55:34;27.20;91.90
26408;DHT22;14583;43.604;1.364;2023-07-31T13:57:59;27.30;91.80
26408;DHT22;14583;43.604;1.364;2023-07-31T14:00:25;27.60;91.20
26408;DHT22;14583;43.604;1.364;2023-07-31T14:02:50;27.70;91.00
26408;DHT22;14583;43.604;1.364;2023-07-31T14:05:16;27.60;91.20
26408;DHT22;14583;43.604;1.364;2023-07-31T14:07:42;27.60;91.60
26408;DHT22;14583;43.604;1.364;2023-07-31T14:10:08;27.80;91.60
26408;DHT22;14583;43.604;1.364;2023-07-31T14:12:33;27.90;90.50
26408;DHT22;14583;43.604;1.364;2023-07-31T14:14:59;27.70;90.00
26408;DHT22;14583;43.604;1.364;2023-07-31T14:17:25;27.60;90.50
26408;DHT22;14583;43.604;1.364;2023-07-31T14:19:50;27.70;91.00
26408;DHT22;14583;43.604;1.364;2023-07-31T14:22:29;27.70;91.00
26408;DHT22;14583;43.604;1.364;2023-07-31T14:24:58;28.00;90.70
26408;DHT22;14583;43.604;1.364;2023-07-31T14:27:24;27.90;90.20
26408;DHT22;14583;43.604;1.364;2023-07-31T14:29:49;27.90;90.70
26408;DHT22;14583;43.604;1.364;2023-07-31T14:32:15;27.90;90.20
26408;DHT22;14583;43.604;1.364;2023-07-31T14:34:40;28.20;90.00
26408;DHT22;14583;43.604;1.364;2023-07-31T14:37:06;28.30;89.80
26408;DHT22;14583;43.604;1.364;2023-07-31T14:39:32;28.70;90.90
26408;DHT22;14583;43.604;1.364;2023-07-31T14:41:57;28.80;88.70
26408;DHT22;14583;43.604;1.364;2023-07-31T14:44:23;28.50;89.50
26408;DHT22;14583;43.604;1.364;2023-07-31T14:46:49;28.40;90.00
26408;DHT22;14583;43.604;1.364;2023-07-31T14:49:14;28.50;90.90
26408;DHT22;14583;43.604;1.364;2023-07-31T14:51:40;28.80;90.50
26408;DHT22;14583;43.604;1.364;2023-07-31T14:54:05;28.80;88.90
26408;DHT22;14583;43.604;1.364;2023-07-31T14:56:31;28.90;88.00
26408;DHT22;14583;43.604;1.364;2023-07-31T14:58:57;29.00;88.60
26408;DHT22;14583;43.604;1.364;2023-07-31T15:01:23;28.80;88.50
26408;DHT22;14583;43.604;1.364;2023-07-31T15:03:49;28.90;89.00
26408;DHT22;14583;43.604;1.364;2023-07-31T15:06:15;29.00;87.80
26408;DHT22;14583;43.604;1.364;2023-07-31T15:08:40;29.10;88.70
26408;DHT22;14583;43.604;1.364;2023-07-31T15:11:07;29.30;87.90
26408;DHT22;14583;43.604;1.364;2023-07-31T15:13:33;29.60;88.40
26408;DHT22;14583;43.604;1.364;2023-07-31T15:15:59;29.70;88.30
26408;DHT22;14583;43.604;1.364;2023-07-31T15:18:24;29.80;87.50
26408;DHT22;14583;43.604;1.364;2023-07-31T15:20:51;29.90;84.30
26408;DHT22;14583;43.604;1.364;2023-07-31T15:23:17;29.80;84.40
26408;DHT22;14583;43.604;1.364;2023-07-31T15:25:43;30.00;87.60
26408;DHT22;14583;43.604;1.364;2023-07-31T15:28:09;30.20;86.90
26408;DHT22;14583;43.604;1.364;2023-07-31T15:30:36;30.50;86.70
26408;DHT22;14583;43.604;1.364;2023-07-31T15:33:03;30.50;83.90
26408;DHT22;14583;43.604;1.364;2023-07-31T15:35:28;30.50;83.60
26408;DHT22;14583;43.604;1.364;2023-07-31T15:37:54;30.60;84.70
26408;DHT22;14583;43.604;1.364;2023-07-31T15:40:20;30.80;85.00
26408;DHT22;14583;43.604;1.364;2023-07-31T15:42:45;30.90;82.30